createdAt,value
2022-10-07T00:02:19.254Z,6.43
2022-10-07T00:04:46.473Z,6.53
2022-10-07T00:07:15.188Z,5.00
2022-10-07T00:09:43.504Z,7.40
2022-10-07T00:12:10.532Z,4.22
2022-10-07T00:14:37.479Z,6.65
2022-10-07T00:17:04.393Z,3.28
2022-10-07T00:19:31.887Z,7.38
2022-10-07T00:21:58.796Z,5.50
2022-10-07T00:24:25.878Z,7.53
2022-10-07T00:26:54.398Z,8.93
2022-10-07T00:29:24.166Z,5.90
2022-10-07T00:31:56.943Z,5.25
2022-10-07T00:34:25.063Z,3.00
2022-10-07T00:36:52.225Z,3.45
2022-10-07T00:39:19.190Z,6.65
2022-10-07T00:41:50.408Z,6.22
2022-10-07T00:44:39.586Z,8.23
2022-10-07T00:47:12.398Z,7.15
2022-10-07T00:49:42.751Z,5.50
2022-10-07T00:52:09.563Z,4.10
2022-10-07T00:54:37.626Z,5.40
2022-10-07T00:57:04.992Z,4.45
2022-10-07T00:59:33.393Z,6.55
2022-10-07T01:02:01.572Z,7.15
2022-10-07T01:04:28.769Z,5.28
2022-10-07T01:06:56.051Z,5.25
2022-10-07T01:09:23.076Z,6.68
2022-10-07T01:11:59.359Z,7.65
2022-10-07T01:14:40.131Z,6.05
2022-10-07T01:17:13.762Z,5.10
2022-10-07T01:20:06.275Z,7.07
2022-10-07T01:22:46.608Z,7.35
2022-10-07T01:25:28.510Z,4.45
2022-10-07T01:28:01.433Z,3.88
2022-10-07T01:30:31.924Z,5.18
2022-10-07T01:33:04.387Z,6.43
2022-10-07T01:35:35.640Z,6.03
2022-10-07T01:38:10.964Z,4.32
2022-10-07T01:40:44.213Z,4.25
2022-10-07T01:43:15.944Z,5.40
2022-10-07T01:45:43.249Z,5.70
2022-10-07T01:48:10.309Z,3.33
2022-10-07T01:50:39.079Z,6.22
2022-10-07T01:53:31.364Z,6.63
2022-10-07T01:56:13.150Z,6.05
2022-10-07T01:59:13.404Z,4.80
2022-10-07T02:01:47.442Z,4.13
2022-10-07T02:04:32.256Z,3.60
2022-10-07T02:07:09.563Z,3.80
2022-10-07T02:09:40.462Z,4.75
2022-10-07T02:12:15.463Z,6.00
2022-10-07T02:14:54.712Z,4.38
2022-10-07T02:17:28.598Z,5.72
2022-10-07T02:19:56.839Z,5.05
2022-10-07T02:22:28.434Z,6.45
2022-10-07T02:24:59.152Z,4.43
2022-10-07T02:27:31.283Z,3.47
2022-10-07T02:30:04.539Z,4.53
2022-10-07T02:32:36.225Z,5.47
2022-10-07T02:35:10.840Z,5.78
2022-10-07T02:37:38.594Z,5.90
2022-10-07T02:40:12.198Z,4.93
2022-10-07T02:42:48.249Z,4.28
2022-10-07T02:45:26.451Z,6.07
2022-10-07T02:47:59.350Z,6.55
2022-10-07T02:50:35.424Z,6.50
2022-10-07T02:53:04.244Z,3.45
2022-10-07T02:55:32.522Z,6.90
2022-10-07T02:58:01.970Z,4.88
2022-10-07T03:00:34.885Z,3.10
2022-10-07T03:03:05.148Z,4.47
2022-10-07T03:05:53.503Z,3.70
2022-10-07T03:08:21.929Z,5.85
2022-10-07T03:10:49.865Z,5.85
2022-10-07T03:13:17.332Z,3.80
2022-10-07T03:15:49.258Z,3.15
2022-10-07T03:18:28.176Z,4.57
2022-10-07T03:21:08.691Z,4.78
2022-10-07T03:23:35.658Z,7.60
2022-10-07T03:26:02.385Z,4.97
2022-10-07T03:28:35.203Z,4.35
2022-10-07T03:31:07.018Z,4.95
2022-10-07T03:33:37.317Z,5.40
2022-10-07T03:36:08.226Z,6.85
2022-10-07T03:38:36.209Z,7.28
2022-10-07T03:41:04.560Z,8.23
2022-10-07T03:43:31.457Z,7.78
2022-10-07T03:46:02.214Z,7.60
2022-10-07T03:48:30.853Z,8.20
2022-10-07T03:50:59.628Z,8.20
2022-10-07T03:53:29.663Z,9.38
2022-10-07T03:55:58.027Z,9.93
2022-10-07T03:58:24.858Z,7.65
2022-10-07T04:00:52.090Z,7.97
2022-10-07T04:03:18.979Z,7.28
2022-10-07T04:08:27.900Z,9.45
2022-10-07T04:10:55.279Z,9.00
2022-10-07T04:13:22.104Z,8.90
2022-10-07T04:15:49.366Z,9.23
2022-10-07T04:18:16.825Z,9.70
2022-10-07T04:20:43.743Z,9.23
2022-10-07T04:23:12.479Z,7.32
2022-10-07T04:25:43.826Z,8.55
2022-10-07T04:28:17.348Z,9.38
2022-10-07T04:30:51.028Z,7.30
2022-10-07T04:33:21.492Z,10.05
2022-10-07T04:40:50.040Z,7.25
2022-10-07T04:43:26.871Z,9.90
2022-10-07T04:46:06.546Z,10.93
2022-10-07T04:48:36.414Z,8.70
2022-10-07T04:51:05.101Z,8.77
2022-10-07T04:53:32.269Z,9.38
2022-10-07T04:56:00.923Z,8.73
2022-10-07T04:58:28.949Z,8.85
2022-10-07T05:00:57.365Z,9.05
2022-10-07T05:03:26.734Z,9.50
2022-10-07T05:08:24.736Z,5.65
2022-10-07T05:10:56.388Z,6.85
2022-10-07T05:13:26.463Z,4.00
2022-10-07T05:15:55.986Z,7.45
2022-10-07T05:18:25.139Z,4.50
2022-10-07T05:20:53.080Z,5.65
2022-10-07T05:23:27.288Z,6.68
2022-10-07T05:25:58.458Z,7.50
2022-10-07T05:28:27.597Z,7.55
2022-10-07T05:31:02.602Z,9.77
2022-10-07T05:33:31.588Z,5.40
2022-10-07T05:35:59.137Z,4.50
2022-10-07T05:38:26.842Z,4.78
2022-10-07T05:40:59.750Z,8.95
2022-10-07T05:43:33.372Z,9.82
2022-10-07T05:46:01.769Z,10.23
2022-10-07T05:48:36.586Z,10.68
2022-10-07T05:51:06.163Z,9.75
2022-10-07T05:53:32.826Z,9.73
2022-10-07T05:56:04.332Z,8.55
2022-10-07T05:58:34.951Z,8.35
2022-10-07T06:01:11.443Z,11.20
2022-10-07T06:03:40.726Z,8.05
2022-10-07T06:06:08.972Z,5.90
2022-10-07T06:08:35.995Z,5.68
2022-10-07T06:11:23.247Z,4.30
2022-10-07T06:13:53.910Z,7.63
2022-10-07T06:16:21.950Z,8.98
2022-10-07T06:18:50.576Z,5.68
2022-10-07T06:21:20.205Z,4.85
2022-10-07T06:23:51.637Z,5.32
2022-10-07T06:26:22.058Z,5.35
2022-10-07T06:28:49.053Z,4.18
2022-10-07T06:31:25.106Z,3.90
2022-10-07T06:33:57.005Z,4.47
2022-10-07T06:36:24.075Z,3.85
2022-10-07T06:38:55.316Z,3.92
2022-10-07T06:41:27.085Z,3.70
2022-10-07T06:44:06.243Z,2.97
2022-10-07T06:46:35.613Z,3.35
2022-10-07T06:49:02.745Z,3.20
2022-10-07T06:51:30.141Z,2.60
2022-10-07T06:53:59.702Z,3.20
2022-10-07T06:56:27.236Z,3.13
2022-10-07T06:58:54.002Z,2.90
2022-10-07T07:01:31.293Z,3.47
2022-10-07T07:03:59.698Z,3.15
2022-10-07T07:06:26.487Z,3.47
2022-10-07T07:08:55.345Z,3.33
2022-10-07T07:14:25.808Z,3.17
2022-10-07T07:16:59.905Z,3.42
2022-10-07T07:19:28.524Z,2.75
2022-10-07T07:21:56.244Z,3.55
2022-10-07T07:24:24.967Z,3.30
2022-10-07T07:26:52.391Z,3.20
2022-10-07T07:29:20.251Z,3.15
2022-10-07T07:31:54.850Z,3.03
2022-10-07T07:34:24.641Z,2.50
2022-10-07T07:36:53.640Z,3.13
2022-10-07T07:39:24.062Z,3.10
2022-10-07T07:42:03.537Z,3.60
2022-10-07T07:44:34.081Z,3.15
2022-10-07T07:47:03.355Z,3.42
2022-10-07T07:49:32.224Z,3.38
2022-10-07T07:52:00.785Z,3.42
2022-10-07T07:54:32.473Z,3.65
2022-10-07T07:56:59.776Z,3.42
2022-10-07T07:59:31.118Z,3.72
2022-10-07T08:01:58.570Z,3.67
2022-10-07T08:04:25.953Z,3.03
2022-10-07T08:06:53.752Z,3.40
2022-10-07T08:09:22.409Z,3.67
2022-10-07T08:11:49.421Z,3.55
2022-10-07T08:14:17.604Z,1.75
2022-10-07T08:16:47.472Z,2.13
2022-10-07T08:19:15.516Z,3.65
2022-10-07T08:21:42.512Z,3.58
2022-10-07T08:24:15.534Z,3.88
2022-10-07T08:26:43.687Z,3.78
2022-10-07T08:29:13.571Z,4.13
2022-10-07T08:31:42.747Z,3.83
2022-10-07T08:34:11.091Z,3.53
2022-10-07T08:36:38.225Z,4.18
2022-10-07T08:39:05.449Z,2.78
2022-10-07T08:41:47.404Z,3.72
2022-10-07T08:44:23.659Z,4.05
2022-10-07T08:46:57.183Z,2.38
2022-10-07T08:49:36.472Z,4.18
2022-10-07T08:52:15.359Z,2.40
2022-10-07T08:54:42.017Z,4.03
2022-10-07T08:57:16.926Z,3.90
2022-10-07T08:59:50.221Z,3.97
2022-10-07T09:02:28.537Z,2.15
2022-10-07T09:05:05.749Z,2.75
2022-10-07T09:07:35.852Z,2.15
2022-10-07T09:10:15.507Z,3.58
2022-10-07T09:12:49.169Z,4.13
2022-10-07T09:15:19.790Z,4.93
2022-10-07T09:17:54.594Z,2.60
2022-10-07T09:20:26.755Z,3.90
2022-10-07T09:22:57.513Z,3.92
2022-10-07T09:25:26.534Z,4.03
2022-10-07T09:30:25.918Z,3.42
2022-10-07T09:32:55.998Z,3.03
2022-10-07T09:35:24.374Z,2.90
2022-10-07T09:37:57.994Z,2.97
2022-10-07T09:40:33.876Z,3.85
2022-10-07T09:43:09.400Z,4.22
2022-10-07T09:45:37.706Z,3.42
2022-10-07T09:48:07.727Z,3.88
2022-10-07T09:50:38.063Z,3.45
2022-10-07T09:53:15.317Z,2.53
2022-10-07T09:55:43.604Z,2.83
2022-10-07T09:58:20.275Z,3.03
2022-10-07T10:00:48.885Z,2.90
2022-10-07T10:03:16.920Z,2.75
2022-10-07T10:05:53.737Z,3.75
2022-10-07T10:08:24.655Z,3.60
2022-10-07T10:10:53.588Z,3.67
2022-10-07T10:15:54.178Z,3.67
2022-10-07T10:18:36.598Z,2.97
2022-10-07T10:21:23.616Z,3.40
2022-10-07T10:23:53.040Z,3.30
2022-10-07T10:26:37.679Z,3.08
2022-10-07T10:29:17.772Z,4.07
2022-10-07T10:31:59.823Z,3.35
2022-10-07T10:34:36.304Z,3.35
2022-10-07T10:37:14.410Z,3.35
2022-10-07T10:39:59.499Z,3.22
2022-10-07T10:42:40.060Z,3.08
2022-10-07T10:45:15.992Z,3.10
2022-10-07T10:48:06.287Z,3.22
2022-10-07T10:50:45.562Z,3.72
2022-10-07T10:53:42.384Z,2.78
2022-10-07T10:56:28.075Z,3.25
2022-10-07T11:24:12.733Z,3.42
2022-10-07T11:38:44.208Z,3.15
2022-10-07T11:44:45.997Z,2.63
2022-10-07T11:47:17.904Z,3.65
2022-10-07T11:50:14.466Z,3.45
2022-10-07T12:09:36.431Z,4.28
2022-10-07T12:12:04.644Z,3.25
2022-10-07T16:42:02.913Z,4.32
2022-10-07T16:44:30.552Z,5.22
2022-10-07T17:25:28.349Z,4.40
